createdAt,value
2023-01-21T00:00:09.840Z,1.25
2023-01-21T00:03:19.965Z,1.24
2023-01-21T00:06:30.018Z,1.16
2023-01-21T00:09:39.987Z,1.12
2023-01-21T00:12:52.685Z,1.14
2023-01-21T00:16:03.038Z,1.16
2023-01-21T00:19:15.298Z,1.15
2023-01-21T00:22:25.406Z,1.15
2023-01-21T00:25:35.486Z,1.05
2023-01-21T00:28:47.435Z,1.08
2023-01-21T00:31:57.606Z,1.09
2023-01-21T00:35:08.648Z,1.08
2023-01-21T00:38:18.819Z,1.12
2023-01-21T00:41:29.086Z,1.04
2023-01-21T00:44:40.750Z,0.96
2023-01-21T00:47:50.951Z,0.90
2023-01-21T00:51:01.491Z,0.82
2023-01-21T00:54:11.697Z,0.70
2023-01-21T00:57:21.956Z,0.66
2023-01-21T01:00:33.688Z,0.69
2023-01-21T04:05:21.180Z,0.30
2023-01-21T04:08:31.324Z,0.43
2023-01-21T04:11:41.492Z,0.28
2023-01-21T04:14:51.719Z,0.17
2023-01-21T04:18:01.909Z,0.22
2023-01-21T04:21:13.403Z,0.25
2023-01-21T04:24:24.591Z,0.13
2023-01-21T04:27:34.710Z,0.13
2023-01-21T04:30:44.933Z,0.18
2023-01-21T04:33:55.009Z,0.27
2023-01-21T04:37:14.164Z,0.20
2023-01-21T04:40:25.458Z,0.12
2023-01-21T04:43:35.642Z,0.13
2023-01-21T04:46:45.941Z,0.14
2023-01-21T04:49:56.175Z,0.08
2023-01-21T04:53:07.636Z,0.12
2023-01-21T04:56:17.725Z,0.09
2023-01-21T04:59:30.716Z,-0.01
2023-01-21T05:02:40.866Z,0.00
2023-01-21T05:05:50.985Z,-0.07
2023-01-21T05:09:02.399Z,-0.24
2023-01-21T05:12:12.666Z,-0.29
2023-01-21T05:15:22.829Z,-0.33
2023-01-21T05:18:33.087Z,-0.40
2023-01-21T05:21:43.359Z,-0.42
2023-01-21T05:24:54.844Z,-0.53
2023-01-21T05:28:05.065Z,-0.65
2023-01-21T05:31:15.212Z,-0.72
2023-01-21T05:34:25.358Z,-0.78
2023-01-21T05:37:35.577Z,-0.89
2023-01-21T05:40:47.103Z,-0.91
2023-01-21T05:43:57.456Z,-0.99
2023-01-21T05:47:07.667Z,-1.03
2023-01-21T05:50:18.121Z,-0.89
2023-01-21T05:53:28.682Z,-0.89
2023-01-21T05:56:39.984Z,-0.92
2023-01-21T05:59:50.138Z,-0.86
2023-01-21T07:47:26.242Z,-1.60
2023-01-21T07:50:37.783Z,-1.66
2023-01-21T07:53:48.358Z,-1.68
2023-01-21T07:56:58.585Z,-1.76
2023-01-21T08:00:09.776Z,-1.84
2023-01-21T08:03:25.214Z,-1.96
2023-01-21T08:06:37.780Z,-1.99
2023-01-21T08:09:48.339Z,-1.98
2023-01-21T08:12:58.504Z,-2.07
2023-01-21T08:16:11.597Z,-2.23
2023-01-21T08:19:22.981Z,-2.28
2023-01-21T08:22:33.217Z,-2.23
2023-01-21T08:25:43.323Z,-2.25
2023-01-21T08:28:54.788Z,-2.33
2023-01-21T08:32:04.976Z,-2.33
2023-01-21T08:35:16.729Z,-2.19
2023-01-21T08:38:27.271Z,-2.09
2023-01-21T08:41:37.360Z,-1.96
2023-01-21T08:44:50.979Z,-1.83
2023-01-21T08:48:03.982Z,-1.67
2023-01-21T08:51:15.411Z,-1.64
2023-01-21T08:54:25.646Z,-1.61
2023-01-21T08:57:35.679Z,-1.54
2023-01-21T09:00:45.899Z,-1.41
2023-01-21T09:03:56.994Z,-1.29
2023-01-21T09:07:08.633Z,-1.14
2023-01-21T09:10:39.322Z,-1.12
2023-01-21T09:13:49.776Z,-1.18
2023-01-21T09:17:00.104Z,-1.04
2023-01-21T09:20:11.716Z,-0.85
2023-01-21T09:23:26.149Z,-0.70
2023-01-21T09:26:36.380Z,-0.52
2023-01-21T09:29:46.928Z,-0.32
2023-01-21T09:32:58.321Z,-0.11
2023-01-21T09:36:12.223Z,0.09
2023-01-21T09:39:23.659Z,0.23
2023-01-21T09:42:34.887Z,0.35
2023-01-21T09:45:46.503Z,0.41
2023-01-21T09:48:57.210Z,0.41
2023-01-21T09:52:17.784Z,0.26
2023-01-21T10:02:50.031Z,0.22
2023-01-21T10:06:15.097Z,0.17
2023-01-21T10:09:42.516Z,0.17
2023-01-21T10:13:06.773Z,0.34
2023-01-21T10:16:27.369Z,0.45
2023-01-21T10:19:45.257Z,0.43
2023-01-21T10:23:00.737Z,0.59
2023-01-21T10:26:14.744Z,0.76
2023-01-21T10:29:27.006Z,0.84
2023-01-21T10:32:40.356Z,0.98
2023-01-21T10:36:13.752Z,1.11
2023-01-21T10:39:36.267Z,1.19
2023-01-21T10:42:58.116Z,1.26
2023-01-21T10:46:18.441Z,1.29
2023-01-21T10:49:45.000Z,1.35
2023-01-21T10:53:03.152Z,1.36
2023-01-21T10:56:22.978Z,1.17
2023-01-21T10:59:35.113Z,1.25
2023-01-21T11:02:50.501Z,1.21
2023-01-21T11:06:02.707Z,1.42
2023-01-21T11:09:15.877Z,1.47
2023-01-21T11:12:28.164Z,1.44
2023-01-21T11:15:41.039Z,1.54
2023-01-21T11:18:51.487Z,1.57
2023-01-21T11:22:04.993Z,1.57
2023-01-21T11:25:29.374Z,1.76
2023-01-21T11:28:39.537Z,1.84
2023-01-21T11:31:52.143Z,1.96
2023-01-21T11:35:06.033Z,1.99
2023-01-21T11:38:24.650Z,2.08
2023-01-21T11:41:36.980Z,1.93
2023-01-21T11:44:54.166Z,1.93
2023-01-21T11:48:20.908Z,1.93
2023-01-21T11:51:31.609Z,1.82
2023-01-21T11:54:42.745Z,1.73
2023-01-21T11:57:57.162Z,1.69
2023-01-21T12:01:12.858Z,1.68
2023-01-21T12:04:23.679Z,1.90
2023-01-21T12:07:38.864Z,1.85
2023-01-21T12:10:49.100Z,1.90
2023-01-21T12:14:12.162Z,1.71
2023-01-21T12:17:39.866Z,1.53
2023-01-21T12:20:58.498Z,1.41
2023-01-21T12:24:20.389Z,1.14
2023-01-21T12:27:36.590Z,1.14
2023-01-21T12:30:57.372Z,1.14
2023-01-21T12:34:13.935Z,1.13
2023-01-21T12:37:28.213Z,1.04
2023-01-21T12:40:46.732Z,1.11
2023-01-21T12:44:02.447Z,1.09
2023-01-21T12:47:26.468Z,0.98
2023-01-21T12:50:39.597Z,0.92
2023-01-21T12:53:56.228Z,0.83
2023-01-21T12:57:15.060Z,0.80
2023-01-21T13:00:26.779Z,0.79
2023-01-21T13:03:49.249Z,0.84
2023-01-21T13:07:07.103Z,0.92
2023-01-21T13:10:24.149Z,0.99
2023-01-21T13:13:38.682Z,1.05
2023-01-21T13:16:55.583Z,1.02
2023-01-21T13:20:16.529Z,0.84
2023-01-21T13:23:34.588Z,0.89
2023-01-21T13:26:51.430Z,0.87
2023-01-21T13:30:10.881Z,0.91
2023-01-21T13:33:34.470Z,0.93
2023-01-21T13:37:02.281Z,0.90
2023-01-21T13:40:27.231Z,0.87
2023-01-21T13:43:54.710Z,0.88
2023-01-21T13:47:11.700Z,0.90
2023-01-21T13:50:32.249Z,0.89
2023-01-21T13:54:00.545Z,0.95
2023-01-21T13:57:26.456Z,0.96
2023-01-21T14:00:42.034Z,1.03
2023-01-21T14:04:02.814Z,0.99
2023-01-21T14:07:18.794Z,1.01
2023-01-21T14:10:35.351Z,0.94
2023-01-21T14:14:14.051Z,0.95
2023-01-21T14:17:45.664Z,1.03
2023-01-21T14:21:15.447Z,1.12
2023-01-21T14:24:38.585Z,1.22
2023-01-21T14:28:03.626Z,1.25
2023-01-21T14:31:17.826Z,1.15
2023-01-21T14:34:34.401Z,1.17
2023-01-21T14:37:47.919Z,1.07
2023-01-21T14:41:07.221Z,1.09
2023-01-21T14:44:37.679Z,0.98
2023-01-21T14:47:50.649Z,0.93
2023-01-21T14:51:13.193Z,0.75
2023-01-21T14:54:26.627Z,0.81
2023-01-21T14:57:39.797Z,0.98
2023-01-21T15:00:52.478Z,1.01
2023-01-21T15:04:07.419Z,1.02
2023-01-21T15:07:21.802Z,1.05
2023-01-21T15:10:35.151Z,1.04
2023-01-21T15:13:45.357Z,1.11
2023-01-21T15:16:57.061Z,1.11
2023-01-21T15:20:39.404Z,1.09
2023-01-21T15:23:51.354Z,1.05
2023-01-21T15:27:15.857Z,0.98
2023-01-21T15:30:29.540Z,0.81
2023-01-21T15:33:48.130Z,0.75
2023-01-21T15:36:58.950Z,0.68
2023-01-21T15:40:18.626Z,0.65
2023-01-21T15:43:36.665Z,0.65
2023-01-21T15:46:58.752Z,0.65
2023-01-21T15:50:21.987Z,0.58
2023-01-21T15:53:52.292Z,0.41
2023-01-21T15:57:19.040Z,0.34
2023-01-21T16:00:35.261Z,0.38
2023-01-21T16:03:56.610Z,0.30
2023-01-21T16:07:25.037Z,0.24
2023-01-21T16:10:42.267Z,0.24
2023-01-21T16:14:04.453Z,0.27
2023-01-21T16:17:21.308Z,0.18
2023-01-21T16:20:32.659Z,0.18
2023-01-21T16:23:44.762Z,0.15
2023-01-21T16:26:55.517Z,0.07
2023-01-21T16:30:08.274Z,0.13
2023-01-21T16:33:18.566Z,0.19
2023-01-21T16:36:29.231Z,0.10
2023-01-21T16:39:41.272Z,0.06
2023-01-21T16:43:07.395Z,0.12
2023-01-21T16:46:22.871Z,0.13
2023-01-21T16:49:35.074Z,0.13
2023-01-21T16:52:46.166Z,0.19
2023-01-21T16:55:59.335Z,0.19
2023-01-21T16:59:19.959Z,0.19
2023-01-21T17:02:32.468Z,0.24
2023-01-21T17:05:42.982Z,0.27
2023-01-21T17:08:56.553Z,0.19
2023-01-21T17:12:10.996Z,0.11
2023-01-21T17:15:30.098Z,0.13
2023-01-21T17:18:44.034Z,0.11
2023-01-21T17:21:57.462Z,0.13
2023-01-21T17:25:20.562Z,0.15
2023-01-21T17:28:41.010Z,0.06
2023-01-21T17:31:57.402Z,-0.02
2023-01-21T17:35:13.909Z,0.05
2023-01-21T17:38:30.448Z,0.09
2023-01-21T17:41:43.392Z,0.13
2023-01-21T17:44:58.162Z,0.18
2023-01-21T17:48:18.013Z,0.19
2023-01-21T17:51:30.649Z,0.18
2023-01-21T17:54:40.892Z,0.18
2023-01-21T17:57:51.892Z,0.19
2023-01-21T18:01:05.096Z,0.20
2023-01-21T18:04:17.221Z,0.24
2023-01-21T18:07:29.918Z,0.17
2023-01-21T18:10:40.526Z,0.07
2023-01-21T18:13:54.297Z,-0.04
2023-01-21T18:17:12.420Z,-0.07
2023-01-21T18:20:24.757Z,-0.12
2023-01-21T18:23:35.089Z,-0.22
2023-01-21T18:26:45.604Z,-0.30
2023-01-21T18:29:59.304Z,-0.43
2023-01-21T18:33:13.081Z,-0.53
2023-01-21T18:36:25.557Z,-0.66
2023-01-21T18:39:35.811Z,-0.70
2023-01-21T18:42:46.938Z,-0.70
2023-01-21T18:45:57.038Z,-0.77
2023-01-21T18:49:15.792Z,-0.78
2023-01-21T18:52:28.656Z,-0.79
2023-01-21T18:55:38.768Z,-0.83
2023-01-21T18:58:49.133Z,-0.89
2023-01-21T19:01:59.274Z,-0.87
2023-01-21T19:05:11.202Z,-0.91
2023-01-21T19:08:27.681Z,-0.91
2023-01-21T19:11:37.747Z,-0.88
2023-01-21T19:14:48.799Z,-0.91
2023-01-21T19:17:59.176Z,-0.88
2023-01-21T19:21:12.612Z,-0.83
2023-01-21T19:24:22.764Z,-0.90
2023-01-21T19:27:36.225Z,-0.91
2023-01-21T19:30:49.369Z,-0.91
2023-01-21T19:33:59.582Z,-0.96
2023-01-21T19:37:14.680Z,-1.00
2023-01-21T19:40:30.998Z,-0.99
2023-01-21T19:43:42.092Z,-1.01
2023-01-21T19:46:52.514Z,-1.03
2023-01-21T19:50:04.104Z,-1.13
2023-01-21T19:53:17.239Z,-1.12
2023-01-21T19:56:27.600Z,-1.18
2023-01-21T19:59:39.591Z,-1.22
2023-01-21T20:02:50.387Z,-1.17
2023-01-21T20:06:03.179Z,-1.14
2023-01-21T20:09:17.829Z,-1.14
2023-01-21T20:12:28.124Z,-1.08
2023-01-21T20:15:39.822Z,-1.06
2023-01-21T20:18:50.518Z,-1.04
2023-01-21T20:22:02.701Z,-1.03
2023-01-21T20:25:17.671Z,-1.00
2023-01-21T20:28:34.951Z,-1.04
2023-01-21T20:31:45.553Z,-0.93
2023-01-21T20:34:55.867Z,-0.98
2023-01-21T20:38:12.969Z,-0.98
2023-01-21T20:41:24.293Z,-0.81
2023-01-21T20:44:34.443Z,-0.75
2023-01-21T20:47:49.986Z,-0.69
2023-01-21T20:51:00.642Z,-0.72
2023-01-21T20:54:10.845Z,-0.68
2023-01-21T20:57:22.086Z,-0.54
2023-01-21T21:00:35.755Z,-0.45
2023-01-21T21:03:46.157Z,-0.44
2023-01-21T21:06:56.147Z,-0.33
2023-01-21T21:10:07.101Z,-0.28
2023-01-21T21:13:18.900Z,-0.31
2023-01-21T21:16:32.079Z,-0.36
2023-01-21T21:19:42.305Z,-0.31
2023-01-21T21:22:52.469Z,-0.26
2023-01-21T21:26:02.444Z,-0.20
2023-01-21T21:29:14.674Z,-0.18
2023-01-21T21:32:24.689Z,-0.20
2023-01-21T21:35:36.369Z,-0.20
2023-01-21T21:38:47.644Z,-0.31
2023-01-21T21:42:08.594Z,-0.27
2023-01-21T21:45:20.048Z,-0.27
2023-01-21T21:48:39.396Z,-0.40
2023-01-21T21:51:49.399Z,-0.34
2023-01-21T21:54:59.389Z,-0.36
2023-01-21T21:58:09.549Z,-0.27
2023-01-21T22:01:23.992Z,-0.29
2023-01-21T22:04:34.361Z,-0.23
2023-01-21T22:07:44.583Z,-0.18
2023-01-21T22:10:59.086Z,-0.20
2023-01-21T22:14:09.164Z,-0.26
2023-01-21T22:17:20.386Z,-0.29
2023-01-21T22:20:30.485Z,-0.30
2023-01-21T22:23:40.505Z,-0.29
2023-01-21T22:26:50.489Z,-0.32
2023-01-21T22:30:01.581Z,-0.18
2023-01-21T22:33:14.161Z,-0.18
2023-01-21T22:36:25.798Z,-0.12
2023-01-21T22:39:35.805Z,-0.13
2023-01-21T22:42:45.849Z,-0.15
2023-01-21T22:45:57.442Z,-0.09
2023-01-21T22:49:08.885Z,-0.14
2023-01-21T22:52:18.827Z,-0.28
2023-01-21T22:55:28.783Z,-0.30
2023-01-21T22:58:39.220Z,-0.30
2023-01-21T23:01:51.401Z,-0.30
2023-01-21T23:05:02.932Z,-0.27
2023-01-21T23:08:12.997Z,-0.38
2023-01-21T23:11:23.018Z,-0.32
2023-01-21T23:14:33.104Z,-0.44
2023-01-21T23:17:43.199Z,-0.45
2023-01-21T23:20:54.606Z,-0.59
2023-01-21T23:24:05.108Z,-0.64
2023-01-21T23:27:15.027Z,-0.74
